Terminal Aerodrome Forecast
Issued by NWS Wichita, KS

Home | Current Version | Previous Version | Graphics & Text | Print | Product List | Glossary On
Versions: 1 2 3 4 5 6 7 8 9 10 11 12 13 14 15 16 17 18 19 20 21 22 23 24 25
374
FTUS43 KICT 282332
TAFICT
TAF
KICT 282332Z 2900/2924 07017G25KT P6SM VCTS OVC020CB
      TEMPO 2900/2904 3SM TSRA BKN009CB
     FM290400 05016G23KT 5SM -TSRA BKN018CB
      TEMPO 2904/2908 2SM TSRA OVC006CB
     FM290800 07017G24KT 5SM -TSRA OVC008CB
     FM291800 14014KT P6SM VCSH OVC018=

USA.gov is the U.S. government's official web portal to all federal, state and local government web resources and services.